sensor_id;sensor_type;location;lat;lon;timestamp;P1;durP1;ratioP1;P2;durP2;ratioP2
10092;SDS011;5085;48.092;11.484;2022-11-15T00:00:08;2.83;;;1.88;;
10092;SDS011;5085;48.092;11.484;2022-11-15T00:02:53;4.15;;;2.00;;
10092;SDS011;5085;48.092;11.484;2022-11-15T00:05:38;3.10;;;1.60;;
10092;SDS011;5085;48.092;11.484;2022-11-15T00:11:08;5.97;;;1.90;;
10092;SDS011;5085;48.092;11.484;2022-11-15T00:13:55;4.70;;;1.98;;
10092;SDS011;5085;48.092;11.484;2022-11-15T00:16:40;4.00;;;2.13;;
10092;SDS011;5085;48.092;11.484;2022-11-15T00:22:09;4.57;;;2.30;;
10092;SDS011;5085;48.092;11.484;2022-11-15T00:27:38;3.20;;;1.83;;
10092;SDS011;5085;48.092;11.484;2022-11-15T00:30:23;3.20;;;1.70;;
10092;SDS011;5085;48.092;11.484;2022-11-15T00:33:08;5.78;;;2.85;;
10092;SDS011;5085;48.092;11.484;2022-11-15T00:35:53;5.43;;;3.05;;
10092;SDS011;5085;48.092;11.484;2022-11-15T00:38:43;5.25;;;2.60;;
10092;SDS011;5085;48.092;11.484;2022-11-15T00:44:12;3.33;;;1.90;;
10092;SDS011;5085;48.092;11.484;2022-11-15T00:46:56;4.78;;;2.28;;
10092;SDS011;5085;48.092;11.484;2022-11-15T00:49:41;5.13;;;2.25;;
10092;SDS011;5085;48.092;11.484;2022-11-15T00:52:26;4.38;;;2.45;;
10092;SDS011;5085;48.092;11.484;2022-11-15T00:55:14;4.38;;;2.17;;
10092;SDS011;5085;48.092;11.484;2022-11-15T00:58:00;2.58;;;1.35;;
10092;SDS011;5085;48.092;11.484;2022-11-15T01:03:32;2.83;;;1.92;;
10092;SDS011;5085;48.092;11.484;2022-11-15T01:06:17;7.53;;;1.58;;
10092;SDS011;5085;48.092;11.484;2022-11-15T01:11:46;3.45;;;1.63;;
10092;SDS011;5085;48.092;11.484;2022-11-15T01:14:31;4.15;;;1.73;;
10092;SDS011;5085;48.092;11.484;2022-11-15T01:17:15;2.38;;;1.63;;
10092;SDS011;5085;48.092;11.484;2022-11-15T01:20:00;2.65;;;1.63;;
10092;SDS011;5085;48.092;11.484;2022-11-15T01:22:44;3.03;;;1.58;;
10092;SDS011;5085;48.092;11.484;2022-11-15T01:28:13;2.53;;;1.35;;
10092;SDS011;5085;48.092;11.484;2022-11-15T01:33:43;4.22;;;1.52;;
10092;SDS011;5085;48.092;11.484;2022-11-15T01:36:28;2.78;;;1.25;;
10092;SDS011;5085;48.092;11.484;2022-11-15T01:39:13;2.70;;;1.02;;
10092;SDS011;5085;48.092;11.484;2022-11-15T01:47:30;2.95;;;1.58;;
10092;SDS011;5085;48.092;11.484;2022-11-15T01:50:18;1.95;;;1.20;;
10092;SDS011;5085;48.092;11.484;2022-11-15T01:53:06;2.47;;;1.27;;
10092;SDS011;5085;48.092;11.484;2022-11-15T01:55:51;3.45;;;1.50;;
10092;SDS011;5085;48.092;11.484;2022-11-15T01:58:36;2.03;;;1.10;;
10092;SDS011;5085;48.092;11.484;2022-11-15T02:01:22;3.30;;;1.50;;
10092;SDS011;5085;48.092;11.484;2022-11-15T02:04:16;3.33;;;1.27;;
10092;SDS011;5085;48.092;11.484;2022-11-15T02:07:04;3.20;;;1.38;;
10092;SDS011;5085;48.092;11.484;2022-11-15T02:09:51;2.28;;;1.33;;
10092;SDS011;5085;48.092;11.484;2022-11-15T02:12:37;2.05;;;1.05;;
10092;SDS011;5085;48.092;11.484;2022-11-15T02:15:23;2.67;;;1.42;;
10092;SDS011;5085;48.092;11.484;2022-11-15T02:18:46;2.70;;;1.50;;
10092;SDS011;5085;48.092;11.484;2022-11-15T02:21:28;3.17;;;1.48;;
10092;SDS011;5085;48.092;11.484;2022-11-15T02:33:30;1.83;;;0.93;;
10092;SDS011;5085;48.092;11.484;2022-11-15T02:36:18;3.38;;;1.40;;
10092;SDS011;5085;48.092;11.484;2022-11-15T02:39:32;3.72;;;1.38;;
10092;SDS011;5085;48.092;11.484;2022-11-15T02:42:28;2.97;;;1.55;;
10092;SDS011;5085;48.092;11.484;2022-11-15T02:45:46;4.25;;;1.80;;
10092;SDS011;5085;48.092;11.484;2022-11-15T02:48:35;2.28;;;1.25;;
10092;SDS011;5085;48.092;11.484;2022-11-15T02:51:21;2.60;;;1.23;;
10092;SDS011;5085;48.092;11.484;2022-11-15T02:54:06;2.95;;;1.30;;
10092;SDS011;5085;48.092;11.484;2022-11-15T02:56:54;2.60;;;1.15;;
10092;SDS011;5085;48.092;11.484;2022-11-15T03:11:49;3.90;;;1.73;;
10092;SDS011;5085;48.092;11.484;2022-11-15T03:15:24;2.40;;;1.42;;
10092;SDS011;5085;48.092;11.484;2022-11-15T03:18:02;3.53;;;1.38;;
10092;SDS011;5085;48.092;11.484;2022-11-15T03:20:52;4.70;;;2.03;;
10092;SDS011;5085;48.092;11.484;2022-11-15T03:23:39;1.92;;;1.40;;
10092;SDS011;5085;48.092;11.484;2022-11-15T03:26:24;3.92;;;1.88;;
10092;SDS011;5085;48.092;11.484;2022-11-15T03:29:17;2.05;;;1.00;;
10092;SDS011;5085;48.092;11.484;2022-11-15T03:32:07;3.40;;;1.85;;
10092;SDS011;5085;48.092;11.484;2022-11-15T03:35:08;1.90;;;1.10;;
10092;SDS011;5085;48.092;11.484;2022-11-15T03:41:04;4.40;;;2.20;;
10092;SDS011;5085;48.092;11.484;2022-11-15T03:43:56;3.67;;;1.30;;
10092;SDS011;5085;48.092;11.484;2022-11-15T03:47:00;2.67;;;1.58;;
10092;SDS011;5085;48.092;11.484;2022-11-15T03:52:46;4.10;;;1.80;;
10092;SDS011;5085;48.092;11.484;2022-11-15T03:55:32;3.70;;;1.73;;
10092;SDS011;5085;48.092;11.484;2022-11-15T03:58:17;6.75;;;1.60;;
10092;SDS011;5085;48.092;11.484;2022-11-15T04:01:01;5.18;;;1.85;;
10092;SDS011;5085;48.092;11.484;2022-11-15T04:03:46;2.90;;;1.58;;
10092;SDS011;5085;48.092;11.484;2022-11-15T04:06:30;3.65;;;1.92;;
10092;SDS011;5085;48.092;11.484;2022-11-15T04:11:59;3.10;;;1.75;;
10092;SDS011;5085;48.092;11.484;2022-11-15T04:17:50;3.47;;;1.70;;
10092;SDS011;5085;48.092;11.484;2022-11-15T04:20:38;2.83;;;1.55;;
10092;SDS011;5085;48.092;11.484;2022-11-15T04:23:42;3.45;;;2.28;;
10092;SDS011;5085;48.092;11.484;2022-11-15T04:26:49;2.80;;;1.50;;
10092;SDS011;5085;48.092;11.484;2022-11-15T04:29:34;2.83;;;1.40;;
10092;SDS011;5085;48.092;11.484;2022-11-15T04:32:19;2.28;;;1.13;;
10092;SDS011;5085;48.092;11.484;2022-11-15T04:35:03;3.40;;;1.90;;
10092;SDS011;5085;48.092;11.484;2022-11-15T04:37:48;3.20;;;1.75;;
10092;SDS011;5085;48.092;11.484;2022-11-15T04:43:17;2.92;;;1.38;;
10092;SDS011;5085;48.092;11.484;2022-11-15T04:46:01;2.95;;;1.75;;
10092;SDS011;5085;48.092;11.484;2022-11-15T04:48:46;3.15;;;1.40;;
10092;SDS011;5085;48.092;11.484;2022-11-15T04:54:15;2.95;;;1.30;;
10092;SDS011;5085;48.092;11.484;2022-11-15T04:56:59;2.20;;;1.20;;
10092;SDS011;5085;48.092;11.484;2022-11-15T05:02:28;2.13;;;1.42;;
10092;SDS011;5085;48.092;11.484;2022-11-15T05:05:32;1.85;;;1.33;;
10092;SDS011;5085;48.092;11.484;2022-11-15T05:08:17;3.08;;;1.33;;
10092;SDS011;5085;48.092;11.484;2022-11-15T05:13:46;2.15;;;1.10;;
10092;SDS011;5085;48.092;11.484;2022-11-15T05:19:15;1.27;;;0.80;;
10092;SDS011;5085;48.092;11.484;2022-11-15T05:21:59;8.50;;;1.15;;
10092;SDS011;5085;48.092;11.484;2022-11-15T05:27:28;3.10;;;1.25;;
10092;SDS011;5085;48.092;11.484;2022-11-15T05:30:13;2.28;;;1.33;;
10092;SDS011;5085;48.092;11.484;2022-11-15T05:32:59;2.95;;;1.10;;
10092;SDS011;5085;48.092;11.484;2022-11-15T05:35:45;2.40;;;1.30;;
10092;SDS011;5085;48.092;11.484;2022-11-15T05:38:34;2.97;;;1.48;;
10092;SDS011;5085;48.092;11.484;2022-11-15T05:41:20;3.00;;;1.60;;
10092;SDS011;5085;48.092;11.484;2022-11-15T05:44:11;2.30;;;1.48;;
10092;SDS011;5085;48.092;11.484;2022-11-15T05:46:58;4.65;;;1.52;;
10092;SDS011;5085;48.092;11.484;2022-11-15T05:49:43;4.05;;;1.27;;
10092;SDS011;5085;48.092;11.484;2022-11-15T05:52:30;4.10;;;1.52;;
10092;SDS011;5085;48.092;11.484;2022-11-15T05:55:18;3.08;;;1.58;;
10092;SDS011;5085;48.092;11.484;2022-11-15T06:00:47;4.30;;;1.70;;
10092;SDS011;5085;48.092;11.484;2022-11-15T06:03:32;2.83;;;1.67;;
10092;SDS011;5085;48.092;11.484;2022-11-15T06:06:17;2.70;;;1.65;;
10092;SDS011;5085;48.092;11.484;2022-11-15T06:09:02;3.50;;;1.45;;
10092;SDS011;5085;48.092;11.484;2022-11-15T06:11:47;1.92;;;1.02;;
10092;SDS011;5085;48.092;11.484;2022-11-15T06:14:32;2.33;;;1.25;;
10092;SDS011;5085;48.092;11.484;2022-11-15T06:17:16;2.25;;;1.10;;
10092;SDS011;5085;48.092;11.484;2022-11-15T06:22:45;2.47;;;1.58;;
10092;SDS011;5085;48.092;11.484;2022-11-15T06:28:15;2.55;;;1.17;;
10092;SDS011;5085;48.092;11.484;2022-11-15T06:31:03;2.38;;;1.27;;
10092;SDS011;5085;48.092;11.484;2022-11-15T06:33:49;5.80;;;1.30;;
10092;SDS011;5085;48.092;11.484;2022-11-15T06:36:34;3.25;;;1.73;;
10092;SDS011;5085;48.092;11.484;2022-11-15T06:39:19;4.00;;;1.83;;
10092;SDS011;5085;48.092;11.484;2022-11-15T06:47:33;3.42;;;1.77;;
10092;SDS011;5085;48.092;11.484;2022-11-15T06:55:47;4.40;;;1.88;;
10092;SDS011;5085;48.092;11.484;2022-11-15T06:58:32;3.97;;;2.50;;
10092;SDS011;5085;48.092;11.484;2022-11-15T07:01:17;2.35;;;1.52;;
10092;SDS011;5085;48.092;11.484;2022-11-15T07:04:02;4.35;;;1.80;;
10092;SDS011;5085;48.092;11.484;2022-11-15T07:09:32;3.13;;;1.65;;
10092;SDS011;5085;48.092;11.484;2022-11-15T07:15:01;4.03;;;1.73;;
10092;SDS011;5085;48.092;11.484;2022-11-15T07:23:14;3.78;;;1.80;;
10092;SDS011;5085;48.092;11.484;2022-11-15T07:28:43;2.85;;;1.58;;
10092;SDS011;5085;48.092;11.484;2022-11-15T07:31:27;5.68;;;2.80;;
10092;SDS011;5085;48.092;11.484;2022-11-15T07:34:12;5.10;;;2.35;;
10092;SDS011;5085;48.092;11.484;2022-11-15T07:36:56;5.18;;;1.67;;
10092;SDS011;5085;48.092;11.484;2022-11-15T07:42:25;6.32;;;2.45;;
10092;SDS011;5085;48.092;11.484;2022-11-15T07:45:28;3.30;;;1.88;;
10092;SDS011;5085;48.092;11.484;2022-11-15T07:48:13;5.30;;;2.70;;
10092;SDS011;5085;48.092;11.484;2022-11-15T07:50:58;4.93;;;2.60;;
10092;SDS011;5085;48.092;11.484;2022-11-15T07:53:43;5.35;;;2.58;;
10092;SDS011;5085;48.092;11.484;2022-11-15T07:56:28;4.50;;;2.47;;
10092;SDS011;5085;48.092;11.484;2022-11-15T07:59:12;5.20;;;2.13;;
10092;SDS011;5085;48.092;11.484;2022-11-15T08:01:57;5.60;;;2.60;;
10092;SDS011;5085;48.092;11.484;2022-11-15T08:04:41;6.07;;;2.40;;
10092;SDS011;5085;48.092;11.484;2022-11-15T08:07:28;7.05;;;2.38;;
10092;SDS011;5085;48.092;11.484;2022-11-15T08:10:14;6.97;;;2.28;;
10092;SDS011;5085;48.092;11.484;2022-11-15T08:13:01;5.05;;;2.00;;
10092;SDS011;5085;48.092;11.484;2022-11-15T08:15:47;6.85;;;2.13;;
10092;SDS011;5085;48.092;11.484;2022-11-15T08:18:31;4.22;;;2.65;;
10092;SDS011;5085;48.092;11.484;2022-11-15T08:21:18;3.95;;;1.95;;
10092;SDS011;5085;48.092;11.484;2022-11-15T08:24:04;3.97;;;2.15;;
10092;SDS011;5085;48.092;11.484;2022-11-15T08:26:48;4.80;;;2.53;;
10092;SDS011;5085;48.092;11.484;2022-11-15T08:29:33;3.35;;;2.10;;
10092;SDS011;5085;48.092;11.484;2022-11-15T08:32:17;3.67;;;2.08;;
10092;SDS011;5085;48.092;11.484;2022-11-15T08:35:02;4.60;;;1.95;;
10092;SDS011;5085;48.092;11.484;2022-11-15T08:37:47;3.42;;;1.73;;
10092;SDS011;5085;48.092;11.484;2022-11-15T08:40:31;4.50;;;1.65;;
10092;SDS011;5085;48.092;11.484;2022-11-15T08:43:16;3.65;;;2.28;;
10092;SDS011;5085;48.092;11.484;2022-11-15T08:46:00;5.65;;;1.75;;
10092;SDS011;5085;48.092;11.484;2022-11-15T08:48:45;5.03;;;1.70;;
10092;SDS011;5085;48.092;11.484;2022-11-15T08:51:29;4.35;;;1.90;;
10092;SDS011;5085;48.092;11.484;2022-11-15T08:54:14;2.83;;;1.70;;
10092;SDS011;5085;48.092;11.484;2022-11-15T08:56:58;3.45;;;1.50;;
10092;SDS011;5085;48.092;11.484;2022-11-15T08:59:43;4.63;;;1.48;;
10092;SDS011;5085;48.092;11.484;2022-11-15T09:02:28;6.53;;;1.55;;
10092;SDS011;5085;48.092;11.484;2022-11-15T09:05:12;4.28;;;1.58;;
10092;SDS011;5085;48.092;11.484;2022-11-15T09:07:57;3.33;;;1.35;;
10092;SDS011;5085;48.092;11.484;2022-11-15T09:10:41;1.90;;;1.00;;
10092;SDS011;5085;48.092;11.484;2022-11-15T09:13:26;3.33;;;1.10;;
10092;SDS011;5085;48.092;11.484;2022-11-15T09:16:10;2.65;;;1.20;;
10092;SDS011;5085;48.092;11.484;2022-11-15T09:18:56;2.78;;;1.25;;
10092;SDS011;5085;48.092;11.484;2022-11-15T09:21:41;2.40;;;1.13;;
10092;SDS011;5085;48.092;11.484;2022-11-15T09:24:25;2.70;;;1.27;;
10092;SDS011;5085;48.092;11.484;2022-11-15T09:27:09;2.65;;;1.10;;
10092;SDS011;5085;48.092;11.484;2022-11-15T09:29:54;2.03;;;1.05;;
10092;SDS011;5085;48.092;11.484;2022-11-15T09:32:38;4.95;;;1.20;;
10092;SDS011;5085;48.092;11.484;2022-11-15T09:35:23;4.28;;;1.02;;
10092;SDS011;5085;48.092;11.484;2022-11-15T09:38:08;3.35;;;1.58;;
10092;SDS011;5085;48.092;11.484;2022-11-15T09:40:59;2.90;;;1.25;;
10092;SDS011;5085;48.092;11.484;2022-11-15T09:50:41;4.03;;;1.45;;
10092;SDS011;5085;48.092;11.484;2022-11-15T09:53:18;2.47;;;1.20;;
10092;SDS011;5085;48.092;11.484;2022-11-15T09:56:03;2.58;;;1.15;;
10092;SDS011;5085;48.092;11.484;2022-11-15T09:58:39;2.22;;;1.00;;
10092;SDS011;5085;48.092;11.484;2022-11-15T10:01:34;2.95;;;0.85;;
10092;SDS011;5085;48.092;11.484;2022-11-15T10:04:05;4.47;;;1.15;;
10092;SDS011;5085;48.092;11.484;2022-11-15T10:06:31;2.67;;;0.90;;
10092;SDS011;5085;48.092;11.484;2022-11-15T10:11:59;2.40;;;1.10;;
10092;SDS011;5085;48.092;11.484;2022-11-15T10:14:26;2.30;;;1.13;;
10092;SDS011;5085;48.092;11.484;2022-11-15T10:16:59;2.10;;;1.10;;
10092;SDS011;5085;48.092;11.484;2022-11-15T10:19:40;2.80;;;1.27;;
10092;SDS011;5085;48.092;11.484;2022-11-15T10:22:28;6.82;;;1.35;;
10092;SDS011;5085;48.092;11.484;2022-11-15T10:27:28;2.08;;;1.08;;
10092;SDS011;5085;48.092;11.484;2022-11-15T10:29:55;3.67;;;0.88;;
10092;SDS011;5085;48.092;11.484;2022-11-15T10:32:21;4.43;;;1.10;;
10092;SDS011;5085;48.092;11.484;2022-11-15T10:34:48;3.83;;;1.23;;
10092;SDS011;5085;48.092;11.484;2022-11-15T10:37:16;2.67;;;1.20;;
10092;SDS011;5085;48.092;11.484;2022-11-15T10:40:14;4.90;;;0.90;;
10092;SDS011;5085;48.092;11.484;2022-11-15T10:42:48;2.05;;;0.98;;
10092;SDS011;5085;48.092;11.484;2022-11-15T10:45:30;2.22;;;0.85;;
10092;SDS011;5085;48.092;11.484;2022-11-15T10:50:39;1.35;;;0.80;;
10092;SDS011;5085;48.092;11.484;2022-11-15T10:53:27;3.33;;;1.15;;
10092;SDS011;5085;48.092;11.484;2022-11-15T10:56:01;2.58;;;0.93;;
10092;SDS011;5085;48.092;11.484;2022-11-15T10:58:36;2.78;;;0.80;;
10092;SDS011;5085;48.092;11.484;2022-11-15T11:03:39;2.95;;;1.02;;
10092;SDS011;5085;48.092;11.484;2022-11-15T11:06:11;1.40;;;0.80;;
10092;SDS011;5085;48.092;11.484;2022-11-15T11:08:37;1.98;;;0.93;;
10092;SDS011;5085;48.092;11.484;2022-11-15T11:11:04;1.63;;;0.95;;
10092;SDS011;5085;48.092;11.484;2022-11-15T11:16:06;1.45;;;0.80;;
10092;SDS011;5085;48.092;11.484;2022-11-15T11:18:56;2.97;;;1.10;;
10092;SDS011;5085;48.092;11.484;2022-11-15T11:27:20;2.45;;;0.90;;
10092;SDS011;5085;48.092;11.484;2022-11-15T11:34:58;2.33;;;1.05;;
10092;SDS011;5085;48.092;11.484;2022-11-15T11:48:14;1.88;;;1.00;;
10092;SDS011;5085;48.092;11.484;2022-11-15T11:51:03;2.75;;;0.80;;
10092;SDS011;5085;48.092;11.484;2022-11-15T11:53:38;1.85;;;1.00;;
10092;SDS011;5085;48.092;11.484;2022-11-15T11:56:16;1.67;;;0.80;;
10092;SDS011;5085;48.092;11.484;2022-11-15T11:58:50;2.65;;;1.10;;
10092;SDS011;5085;48.092;11.484;2022-11-15T12:12:38;2.08;;;0.88;;
10092;SDS011;5085;48.092;11.484;2022-11-15T12:15:14;1.48;;;0.93;;
10092;SDS011;5085;48.092;11.484;2022-11-15T12:17:43;1.83;;;0.80;;
10092;SDS011;5085;48.092;11.484;2022-11-15T12:20:21;2.17;;;0.73;;
10092;SDS011;5085;48.092;11.484;2022-11-15T12:22:53;3.35;;;1.10;;
10092;SDS011;5085;48.092;11.484;2022-11-15T12:25:25;1.75;;;0.95;;
10092;SDS011;5085;48.092;11.484;2022-11-15T12:28:24;2.00;;;1.00;;
10092;SDS011;5085;48.092;11.484;2022-11-15T12:33:49;2.65;;;1.02;;
10092;SDS011;5085;48.092;11.484;2022-11-15T12:38:56;1.38;;;0.80;;
10092;SDS011;5085;48.092;11.484;2022-11-15T12:41:33;2.00;;;0.95;;
10092;SDS011;5085;48.092;11.484;2022-11-15T12:44:02;1.50;;;0.80;;
10092;SDS011;5085;48.092;11.484;2022-11-15T12:48:59;2.25;;;0.95;;
10092;SDS011;5085;48.092;11.484;2022-11-15T13:04:51;1.25;;;0.70;;
10092;SDS011;5085;48.092;11.484;2022-11-15T13:10:46;1.50;;;0.90;;
10092;SDS011;5085;48.092;11.484;2022-11-15T13:13:08;1.85;;;1.10;;
10092;SDS011;5085;48.092;11.484;2022-11-15T13:15:54;2.72;;;1.48;;
10092;SDS011;5085;48.092;11.484;2022-11-15T13:18:33;1.45;;;0.90;;
10092;SDS011;5085;48.092;11.484;2022-11-15T13:20:59;2.50;;;1.13;;
10092;SDS011;5085;48.092;11.484;2022-11-15T13:23:26;1.92;;;0.77;;
10092;SDS011;5085;48.092;11.484;2022-11-15T13:28:52;2.60;;;0.90;;
10092;SDS011;5085;48.092;11.484;2022-11-15T13:31:24;1.92;;;0.90;;
10092;SDS011;5085;48.092;11.484;2022-11-15T13:33:55;2.58;;;1.00;;
10092;SDS011;5085;48.092;11.484;2022-11-15T13:36:24;3.70;;;1.20;;
10092;SDS011;5085;48.092;11.484;2022-11-15T13:41:24;2.42;;;1.10;;
10092;SDS011;5085;48.092;11.484;2022-11-15T13:43:53;2.13;;;1.02;;
10092;SDS011;5085;48.092;11.484;2022-11-15T13:46:27;2.05;;;1.15;;
10092;SDS011;5085;48.092;11.484;2022-11-15T13:48:58;3.22;;;1.20;;
10092;SDS011;5085;48.092;11.484;2022-11-15T13:51:28;2.13;;;1.08;;
10092;SDS011;5085;48.092;11.484;2022-11-15T13:54:01;1.50;;;0.90;;
10092;SDS011;5085;48.092;11.484;2022-11-15T13:56:38;2.10;;;1.17;;
10092;SDS011;5085;48.092;11.484;2022-11-15T13:59:09;1.98;;;1.02;;
10092;SDS011;5085;48.092;11.484;2022-11-15T14:01:48;4.35;;;1.73;;
10092;SDS011;5085;48.092;11.484;2022-11-15T14:04:17;1.98;;;1.20;;
10092;SDS011;5085;48.092;11.484;2022-11-15T14:06:46;2.20;;;0.88;;
10092;SDS011;5085;48.092;11.484;2022-11-15T14:12:24;3.22;;;0.95;;
10092;SDS011;5085;48.092;11.484;2022-11-15T14:14:58;1.30;;;0.75;;
10092;SDS011;5085;48.092;11.484;2022-11-15T14:19:54;2.38;;;0.90;;
10092;SDS011;5085;48.092;11.484;2022-11-15T14:25:07;2.50;;;0.90;;
10092;SDS011;5085;48.092;11.484;2022-11-15T14:27:38;1.67;;;0.80;;
10092;SDS011;5085;48.092;11.484;2022-11-15T14:30:05;1.23;;;0.70;;
10092;SDS011;5085;48.092;11.484;2022-11-15T14:32:48;2.58;;;0.80;;
10092;SDS011;5085;48.092;11.484;2022-11-15T14:35:19;2.63;;;0.90;;
10092;SDS011;5085;48.092;11.484;2022-11-15T14:37:47;1.65;;;0.93;;
10092;SDS011;5085;48.092;11.484;2022-11-15T14:40:18;1.80;;;0.80;;
10092;SDS011;5085;48.092;11.484;2022-11-15T14:42:46;2.88;;;1.00;;
10092;SDS011;5085;48.092;11.484;2022-11-15T14:45:17;5.65;;;1.50;;
10092;SDS011;5085;48.092;11.484;2022-11-15T14:47:45;7.80;;;1.15;;
10092;SDS011;5085;48.092;11.484;2022-11-15T14:50:12;5.03;;;1.20;;
10092;SDS011;5085;48.092;11.484;2022-11-15T14:55:21;4.45;;;1.25;;
10092;SDS011;5085;48.092;11.484;2022-11-15T14:57:50;6.43;;;1.15;;
10092;SDS011;5085;48.092;11.484;2022-11-15T15:00:18;1.58;;;0.80;;
10092;SDS011;5085;48.092;11.484;2022-11-15T15:02:45;2.75;;;0.90;;
10092;SDS011;5085;48.092;11.484;2022-11-15T15:07:45;4.38;;;1.17;;
10092;SDS011;5085;48.092;11.484;2022-11-15T15:10:12;3.72;;;0.93;;
10092;SDS011;5085;48.092;11.484;2022-11-15T15:12:39;2.15;;;0.75;;
10092;SDS011;5085;48.092;11.484;2022-11-15T15:15:08;5.05;;;1.20;;
10092;SDS011;5085;48.092;11.484;2022-11-15T15:17:40;4.70;;;1.00;;
10092;SDS011;5085;48.092;11.484;2022-11-15T15:20:06;2.58;;;1.20;;
10092;SDS011;5085;48.092;11.484;2022-11-15T15:22:32;2.20;;;1.10;;
10092;SDS011;5085;48.092;11.484;2022-11-15T15:24:58;4.43;;;1.40;;
10092;SDS011;5085;48.092;11.484;2022-11-15T15:27:24;3.25;;;1.35;;
10092;SDS011;5085;48.092;11.484;2022-11-15T15:29:50;3.30;;;1.58;;
10092;SDS011;5085;48.092;11.484;2022-11-15T15:32:16;3.72;;;1.75;;
10092;SDS011;5085;48.092;11.484;2022-11-15T15:34:42;2.97;;;1.67;;
10092;SDS011;5085;48.092;11.484;2022-11-15T15:37:22;2.50;;;1.60;;
10092;SDS011;5085;48.092;11.484;2022-11-15T15:39:54;3.67;;;1.67;;
10092;SDS011;5085;48.092;11.484;2022-11-15T15:42:21;3.38;;;1.90;;
10092;SDS011;5085;48.092;11.484;2022-11-15T15:44:48;5.88;;;2.30;;
10092;SDS011;5085;48.092;11.484;2022-11-15T15:47:16;3.25;;;1.83;;
10092;SDS011;5085;48.092;11.484;2022-11-15T15:49:47;3.97;;;1.92;;
10092;SDS011;5085;48.092;11.484;2022-11-15T15:52:14;4.78;;;2.00;;
10092;SDS011;5085;48.092;11.484;2022-11-15T15:54:40;5.47;;;2.42;;
10092;SDS011;5085;48.092;11.484;2022-11-15T15:57:06;4.28;;;2.17;;
10092;SDS011;5085;48.092;11.484;2022-11-15T15:59:34;3.55;;;1.98;;
10092;SDS011;5085;48.092;11.484;2022-11-15T16:02:00;3.95;;;2.10;;
10092;SDS011;5085;48.092;11.484;2022-11-15T16:04:26;4.38;;;2.15;;
10092;SDS011;5085;48.092;11.484;2022-11-15T16:06:52;4.30;;;2.15;;
10092;SDS011;5085;48.092;11.484;2022-11-15T16:09:20;2.83;;;1.70;;
10092;SDS011;5085;48.092;11.484;2022-11-15T16:12:06;4.70;;;2.10;;
10092;SDS011;5085;48.092;11.484;2022-11-15T16:14:32;3.83;;;2.00;;
10092;SDS011;5085;48.092;11.484;2022-11-15T16:16:58;6.00;;;2.22;;
10092;SDS011;5085;48.092;11.484;2022-11-15T16:19:24;5.13;;;2.10;;
10092;SDS011;5085;48.092;11.484;2022-11-15T16:21:50;6.18;;;2.22;;
10092;SDS011;5085;48.092;11.484;2022-11-15T16:24:17;6.75;;;2.58;;
10092;SDS011;5085;48.092;11.484;2022-11-15T16:26:44;11.30;;;3.67;;
10092;SDS011;5085;48.092;11.484;2022-11-15T16:29:12;6.05;;;2.92;;
10092;SDS011;5085;48.092;11.484;2022-11-15T16:31:38;12.25;;;4.07;;
10092;SDS011;5085;48.092;11.484;2022-11-15T16:34:04;15.27;;;4.15;;
10092;SDS011;5085;48.092;11.484;2022-11-15T16:36:30;14.63;;;4.50;;
10092;SDS011;5085;48.092;11.484;2022-11-15T16:38:59;8.48;;;3.67;;
10092;SDS011;5085;48.092;11.484;2022-11-15T16:41:29;10.07;;;4.20;;
10092;SDS011;5085;48.092;11.484;2022-11-15T16:43:56;13.10;;;5.35;;
10092;SDS011;5085;48.092;11.484;2022-11-15T16:46:23;14.40;;;7.07;;
10092;SDS011;5085;48.092;11.484;2022-11-15T16:48:50;11.82;;;6.20;;
10092;SDS011;5085;48.092;11.484;2022-11-15T16:51:18;10.20;;;5.60;;
10092;SDS011;5085;48.092;11.484;2022-11-15T16:53:45;9.95;;;4.82;;
10092;SDS011;5085;48.092;11.484;2022-11-15T16:56:19;13.30;;;4.60;;
10092;SDS011;5085;48.092;11.484;2022-11-15T16:58:50;9.00;;;5.22;;
10092;SDS011;5085;48.092;11.484;2022-11-15T17:01:18;13.57;;;4.85;;
10092;SDS011;5085;48.092;11.484;2022-11-15T17:03:49;12.07;;;4.30;;
10092;SDS011;5085;48.092;11.484;2022-11-15T17:06:15;7.45;;;3.33;;
10092;SDS011;5085;48.092;11.484;2022-11-15T17:08:43;11.77;;;3.40;;
10092;SDS011;5085;48.092;11.484;2022-11-15T17:11:10;7.05;;;3.30;;
10092;SDS011;5085;48.092;11.484;2022-11-15T17:13:42;8.95;;;3.35;;
10092;SDS011;5085;48.092;11.484;2022-11-15T17:16:10;13.43;;;5.00;;
10092;SDS011;5085;48.092;11.484;2022-11-15T17:18:40;12.15;;;6.25;;
10092;SDS011;5085;48.092;11.484;2022-11-15T17:21:15;13.80;;;5.90;;
10092;SDS011;5085;48.092;11.484;2022-11-15T17:23:43;12.40;;;6.18;;
10092;SDS011;5085;48.092;11.484;2022-11-15T17:26:10;10.55;;;5.03;;
10092;SDS011;5085;48.092;11.484;2022-11-15T17:28:37;9.90;;;4.18;;
10092;SDS011;5085;48.092;11.484;2022-11-15T17:31:08;9.40;;;4.30;;
10092;SDS011;5085;48.092;11.484;2022-11-15T17:33:36;9.90;;;4.13;;
10092;SDS011;5085;48.092;11.484;2022-11-15T17:36:04;8.25;;;3.78;;
10092;SDS011;5085;48.092;11.484;2022-11-15T17:38:31;8.18;;;3.70;;
10092;SDS011;5085;48.092;11.484;2022-11-15T17:41:13;9.40;;;3.95;;
10092;SDS011;5085;48.092;11.484;2022-11-15T17:43:41;7.97;;;3.78;;
10092;SDS011;5085;48.092;11.484;2022-11-15T17:46:10;6.75;;;3.88;;
10092;SDS011;5085;48.092;11.484;2022-11-15T17:48:38;6.15;;;3.75;;
10092;SDS011;5085;48.092;11.484;2022-11-15T17:51:05;7.47;;;3.50;;
10092;SDS011;5085;48.092;11.484;2022-11-15T17:53:33;9.68;;;4.20;;
10092;SDS011;5085;48.092;11.484;2022-11-15T17:56:06;9.43;;;4.78;;
10092;SDS011;5085;48.092;11.484;2022-11-15T17:58:34;14.27;;;6.20;;
10092;SDS011;5085;48.092;11.484;2022-11-15T18:01:07;9.13;;;5.57;;
10092;SDS011;5085;48.092;11.484;2022-11-15T18:03:37;10.85;;;5.18;;
10092;SDS011;5085;48.092;11.484;2022-11-15T18:06:04;10.30;;;4.60;;
10092;SDS011;5085;48.092;11.484;2022-11-15T18:08:31;10.82;;;5.35;;
10092;SDS011;5085;48.092;11.484;2022-11-15T18:11:08;15.25;;;5.97;;
10092;SDS011;5085;48.092;11.484;2022-11-15T18:13:35;13.80;;;6.82;;
10092;SDS011;5085;48.092;11.484;2022-11-15T18:16:03;16.00;;;5.97;;
10092;SDS011;5085;48.092;11.484;2022-11-15T18:18:31;13.57;;;5.63;;
10092;SDS011;5085;48.092;11.484;2022-11-15T18:21:02;13.05;;;5.28;;
10092;SDS011;5085;48.092;11.484;2022-11-15T18:23:36;9.90;;;4.78;;
10092;SDS011;5085;48.092;11.484;2022-11-15T18:26:03;11.55;;;4.63;;
10092;SDS011;5085;48.092;11.484;2022-11-15T18:28:37;7.40;;;3.90;;
10092;SDS011;5085;48.092;11.484;2022-11-15T18:31:13;7.70;;;4.40;;
10092;SDS011;5085;48.092;11.484;2022-11-15T18:33:44;7.32;;;3.47;;
10092;SDS011;5085;48.092;11.484;2022-11-15T18:36:11;17.08;;;4.25;;
10092;SDS011;5085;48.092;11.484;2022-11-15T18:38:40;7.85;;;3.67;;
10092;SDS011;5085;48.092;11.484;2022-11-15T18:41:10;11.25;;;4.88;;
10092;SDS011;5085;48.092;11.484;2022-11-15T18:43:45;7.47;;;3.80;;
10092;SDS011;5085;48.092;11.484;2022-11-15T18:46:16;9.48;;;4.13;;
10092;SDS011;5085;48.092;11.484;2022-11-15T18:48:44;9.57;;;4.18;;
10092;SDS011;5085;48.092;11.484;2022-11-15T18:51:12;10.98;;;4.13;;
10092;SDS011;5085;48.092;11.484;2022-11-15T18:53:43;11.77;;;4.20;;
10092;SDS011;5085;48.092;11.484;2022-11-15T18:58:38;9.10;;;4.40;;
10092;SDS011;5085;48.092;11.484;2022-11-15T19:01:10;7.93;;;4.07;;
10092;SDS011;5085;48.092;11.484;2022-11-15T19:03:41;7.85;;;4.05;;
10092;SDS011;5085;48.092;11.484;2022-11-15T19:06:09;10.95;;;4.25;;
10092;SDS011;5085;48.092;11.484;2022-11-15T19:08:38;7.28;;;4.00;;
10092;SDS011;5085;48.092;11.484;2022-11-15T19:11:09;9.40;;;4.25;;
10092;SDS011;5085;48.092;11.484;2022-11-15T19:13:36;6.97;;;4.00;;
10092;SDS011;5085;48.092;11.484;2022-11-15T19:16:02;8.75;;;4.18;;
10092;SDS011;5085;48.092;11.484;2022-11-15T19:18:29;8.27;;;3.53;;
10092;SDS011;5085;48.092;11.484;2022-11-15T19:21:00;6.75;;;3.90;;
10092;SDS011;5085;48.092;11.484;2022-11-15T19:23:32;9.45;;;4.43;;